Terminal Aerodrome Forecast
Issued by NWS Sterling, VA

Current Version | Previous Version | Text Only | Print | Product List | Glossary Off
Versions: 1 2 3 4 5 6 7 8 9 10 11

000
FTUS41 KLWX 181700
TAFMRB
TAF
KMRB 181738Z 1818/1918 30011G20KT P6SM BKN040
     FM182200 31008KT P6SM BKN040
     FM191100 29007KT P6SM SCT070
     FM191500 31011KT P6SM SCT035=

USA.gov is the U.S. government's official web portal to all federal, state and local government web resources and services.